createdAt,value
2018-02-21T00:01:25.271Z,2.85
2018-02-21T00:03:53.117Z,2.62
2018-02-21T00:06:20.640Z,2.94
2018-02-21T00:08:48.179Z,2.79
2018-02-21T00:11:15.734Z,3.00
2018-02-21T00:13:43.258Z,2.44
2018-02-21T00:16:11.717Z,2.66
2018-02-21T00:18:39.244Z,2.56
2018-02-21T00:21:06.753Z,2.41
2018-02-21T00:23:34.298Z,2.48
2018-02-21T00:26:01.822Z,2.33
2018-02-21T00:28:29.447Z,2.50
2018-02-21T00:30:56.961Z,2.35
2018-02-21T00:33:24.505Z,2.58
2018-02-21T00:35:52.091Z,2.32
2018-02-21T00:38:19.614Z,2.60
2018-02-21T00:40:47.162Z,2.10
2018-02-21T00:43:14.681Z,2.50
2018-02-21T00:45:42.214Z,2.52
2018-02-21T00:48:09.764Z,2.30
2018-02-21T00:50:37.273Z,2.21
2018-02-21T00:53:04.859Z,2.28
2018-02-21T00:55:32.378Z,2.44
2018-02-21T00:57:59.887Z,2.19
2018-02-21T01:00:27.433Z,2.48
2018-02-21T01:02:54.946Z,2.67
2018-02-21T01:05:22.510Z,2.24
2018-02-21T01:07:50.028Z,2.43
2018-02-21T01:10:17.545Z,2.57
2018-02-21T01:12:45.107Z,2.50
2018-02-21T01:15:12.647Z,2.52
2018-02-21T01:17:40.518Z,2.16
2018-02-21T01:20:08.037Z,2.56
2018-02-21T01:22:35.550Z,2.65
2018-02-21T01:25:03.095Z,2.56
2018-02-21T01:27:30.618Z,2.57
2018-02-21T01:29:58.265Z,2.51
2018-02-21T01:32:25.787Z,2.63
2018-02-21T01:34:53.361Z,2.58
2018-02-21T01:37:20.918Z,2.65
2018-02-21T01:39:48.511Z,2.59
2018-02-21T01:42:16.082Z,2.58
2018-02-21T01:44:43.609Z,2.46
2018-02-21T01:47:11.127Z,2.43
2018-02-21T01:49:38.671Z,2.43
2018-02-21T01:52:06.187Z,2.46
2018-02-21T01:54:33.783Z,2.59
2018-02-21T01:57:01.293Z,2.58
2018-02-21T01:59:28.808Z,2.55
2018-02-21T02:01:56.352Z,2.72
2018-02-21T02:04:24.081Z,2.76
2018-02-21T02:06:51.638Z,2.80
2018-02-21T02:09:19.167Z,2.66
2018-02-21T02:11:46.697Z,2.63
2018-02-21T02:14:14.256Z,2.63
2018-02-21T02:16:41.776Z,2.55
2018-02-21T02:19:09.489Z,2.64
2018-02-21T02:21:37.013Z,2.70
2018-02-21T02:24:04.533Z,2.49
2018-02-21T02:26:32.094Z,2.76
2018-02-21T02:28:59.628Z,2.75
2018-02-21T02:31:27.186Z,2.61
2018-02-21T02:33:54.693Z,2.66
2018-02-21T02:36:22.209Z,2.61
2018-02-21T02:39:01.703Z,2.63
2018-02-21T02:41:29.250Z,2.69
2018-02-21T02:43:56.821Z,2.73
2018-02-21T02:46:24.382Z,2.67
2018-02-21T02:48:51.934Z,2.47
2018-02-21T02:51:19.458Z,2.48
2018-02-21T02:53:46.974Z,2.56
2018-02-21T02:56:14.510Z,2.59
2018-02-21T02:58:42.029Z,2.69
2018-02-21T03:01:09.582Z,2.69
2018-02-21T03:03:37.111Z,2.26
2018-02-21T03:06:04.634Z,2.43
2018-02-21T03:08:32.494Z,2.59
2018-02-21T03:11:00.014Z,2.65
2018-02-21T03:13:27.876Z,2.48
2018-02-21T03:15:55.385Z,2.57
2018-02-21T03:18:22.893Z,2.70
2018-02-21T03:20:50.437Z,2.75
2018-02-21T03:23:17.953Z,2.65
2018-02-21T03:25:45.664Z,2.31
2018-02-21T03:28:13.183Z,2.73
2018-02-21T03:30:40.698Z,2.68
2018-02-21T03:33:08.250Z,2.77
2018-02-21T03:35:35.764Z,2.59
2018-02-21T03:38:03.325Z,2.74
2018-02-21T03:40:30.850Z,2.74
2018-02-21T03:42:58.438Z,2.56
2018-02-21T03:45:25.990Z,2.71
2018-02-21T03:47:53.501Z,2.81
2018-02-21T03:50:21.061Z,2.65
2018-02-21T03:52:48.579Z,2.69
2018-02-21T03:55:16.089Z,2.70
2018-02-21T03:57:43.629Z,2.52
2018-02-21T04:00:11.141Z,2.70
2018-02-21T04:02:38.717Z,2.61
2018-02-21T04:05:06.236Z,2.51
2018-02-21T04:07:33.752Z,2.24
2018-02-21T04:10:01.297Z,2.27
2018-02-21T04:12:28.817Z,2.37
2018-02-21T04:14:56.369Z,2.59
2018-02-21T04:17:23.882Z,2.64
2018-02-21T04:19:51.411Z,2.52
2018-02-21T04:22:18.957Z,2.43
2018-02-21T04:24:46.477Z,2.43
2018-02-21T04:27:14.344Z,2.47
2018-02-21T04:29:41.864Z,2.34
2018-02-21T04:32:09.386Z,2.52
2018-02-21T04:34:37.863Z,2.29
2018-02-21T04:37:05.386Z,2.23
2018-02-21T04:39:32.934Z,2.35
2018-02-21T04:42:01.364Z,2.43
2018-02-21T04:44:28.889Z,2.52
2018-02-21T04:46:56.433Z,2.31
2018-02-21T04:49:23.998Z,2.27
2018-02-21T04:51:51.673Z,2.40
2018-02-21T04:57:36.466Z,2.30
2018-02-21T05:00:04.068Z,2.32
2018-02-21T05:02:31.554Z,2.37
2018-02-21T05:04:59.096Z,2.34
2018-02-21T05:07:26.619Z,2.31
2018-02-21T05:09:54.170Z,2.18
2018-02-21T05:12:21.687Z,2.40
2018-02-21T05:14:49.213Z,2.18
2018-02-21T05:17:16.777Z,2.32
2018-02-21T05:19:44.293Z,2.13
2018-02-21T05:22:11.859Z,2.08
2018-02-21T05:24:39.378Z,2.09
2018-02-21T05:27:06.897Z,1.56
2018-02-21T05:29:34.445Z,1.74
2018-02-21T05:32:01.966Z,1.92
2018-02-21T05:34:29.845Z,2.00
2018-02-21T05:36:57.358Z,2.11
2018-02-21T05:39:25.716Z,1.96
2018-02-21T05:41:53.248Z,2.14
2018-02-21T05:44:20.767Z,2.13
2018-02-21T05:46:48.577Z,2.21
2018-02-21T05:49:16.112Z,2.21
2018-02-21T05:51:43.626Z,2.02
2018-02-21T05:54:11.344Z,1.81
2018-02-21T05:56:38.929Z,2.14
2018-02-21T05:59:06.674Z,2.06
2018-02-21T06:01:34.186Z,2.03
2018-02-21T06:04:01.712Z,2.23
2018-02-21T06:06:29.264Z,2.43
2018-02-21T06:08:56.784Z,2.38
2018-02-21T06:11:24.329Z,2.30
2018-02-21T06:13:51.843Z,2.54
2018-02-21T06:16:19.362Z,2.27
2018-02-21T06:18:46.930Z,2.44
2018-02-21T06:21:14.481Z,2.47
2018-02-21T06:23:42.356Z,2.53
2018-02-21T06:26:09.877Z,2.45
2018-02-21T06:28:38.526Z,2.05
2018-02-21T06:31:06.080Z,2.16
2018-02-21T06:33:33.606Z,2.22
2018-02-21T06:36:01.394Z,2.43
2018-02-21T06:38:28.963Z,2.51
2018-02-21T06:40:56.457Z,2.45
2018-02-21T06:43:24.035Z,2.32
2018-02-21T06:45:51.558Z,2.51
2018-02-21T06:48:19.206Z,2.46
2018-02-21T06:50:46.722Z,2.19
2018-02-21T06:53:14.242Z,2.41
2018-02-21T06:55:41.789Z,2.72
2018-02-21T06:58:09.350Z,2.86
2018-02-21T07:00:36.901Z,2.90
2018-02-21T07:03:04.421Z,3.02
2018-02-21T07:05:32.146Z,2.73
2018-02-21T07:07:59.701Z,2.63
2018-02-21T07:10:27.219Z,2.98
2018-02-21T07:12:54.820Z,2.66
2018-02-21T07:15:22.371Z,2.93
2018-02-21T07:17:49.897Z,2.94
2018-02-21T07:20:17.452Z,3.12
2018-02-21T07:22:44.976Z,3.03
2018-02-21T07:25:12.554Z,3.26
2018-02-21T07:27:40.262Z,3.24
2018-02-21T07:30:07.882Z,3.26
2018-02-21T07:32:36.709Z,3.05
2018-02-21T07:35:04.577Z,3.22
2018-02-21T07:37:32.652Z,3.42
2018-02-21T07:40:01.091Z,3.25
2018-02-21T07:42:29.813Z,2.87
2018-02-21T07:44:57.470Z,3.02
2018-02-21T07:47:25.342Z,3.07
2018-02-21T07:49:54.024Z,3.21
2018-02-21T07:52:21.791Z,2.90
2018-02-21T07:54:49.358Z,3.01
2018-02-21T07:57:17.091Z,2.98
2018-02-21T07:59:44.777Z,3.22
2018-02-21T08:02:12.644Z,3.18
2018-02-21T08:04:40.183Z,3.28
2018-02-21T08:07:07.698Z,3.36
2018-02-21T08:09:35.422Z,3.55
2018-02-21T08:12:03.102Z,3.53
2018-02-21T08:14:30.835Z,3.34
2018-02-21T08:16:58.408Z,3.41
2018-02-21T08:19:25.924Z,3.31
2018-02-21T08:21:53.475Z,3.29
2018-02-21T08:24:20.997Z,3.12
2018-02-21T08:26:48.730Z,3.52
2018-02-21T08:29:16.255Z,3.42
2018-02-21T08:31:43.798Z,3.72
2018-02-21T08:34:11.342Z,3.75
2018-02-21T08:36:38.898Z,3.51
2018-02-21T08:39:06.538Z,3.36
2018-02-21T08:41:34.049Z,3.33
2018-02-21T08:44:01.574Z,3.41
2018-02-21T08:46:29.126Z,3.63
2018-02-21T08:48:56.650Z,3.68
2018-02-21T08:51:24.422Z,3.26
2018-02-21T08:53:51.946Z,3.82
2018-02-21T08:56:19.475Z,3.92
2018-02-21T08:58:47.067Z,4.09
2018-02-21T09:01:14.565Z,3.95
2018-02-21T09:03:42.122Z,4.03
2018-02-21T09:06:09.641Z,4.00
2018-02-21T09:08:37.170Z,4.35
2018-02-21T09:11:04.725Z,4.43
2018-02-21T09:13:32.249Z,4.45
2018-02-21T09:15:59.805Z,4.42
2018-02-21T09:18:27.324Z,4.61
2018-02-21T09:20:54.843Z,4.56
2018-02-21T09:23:22.437Z,4.71
2018-02-21T09:25:51.594Z,4.99
2018-02-21T09:28:19.550Z,5.12
2018-02-21T09:30:47.071Z,5.53
2018-02-21T09:33:14.605Z,5.18
2018-02-21T09:35:42.158Z,5.57
2018-02-21T09:38:09.693Z,6.32
2018-02-21T09:40:37.349Z,7.14
2018-02-21T09:43:04.873Z,6.45
2018-02-21T09:45:32.398Z,6.13
2018-02-21T09:48:00.896Z,6.46
2018-02-21T09:50:28.423Z,6.26
2018-02-21T09:52:56.166Z,7.32
2018-02-21T09:55:23.762Z,7.62
2018-02-21T09:57:51.284Z,8.18
2018-02-21T10:00:18.826Z,7.28
2018-02-21T10:02:46.833Z,7.64
2018-02-21T10:05:14.385Z,8.32
2018-02-21T10:07:41.907Z,8.51
2018-02-21T10:10:09.431Z,9.87
2018-02-21T10:12:36.983Z,9.43
2018-02-21T10:15:04.512Z,9.82
2018-02-21T10:17:32.067Z,9.53
2018-02-21T10:19:59.590Z,10.80
2018-02-21T10:22:27.161Z,11.70
2018-02-21T10:24:54.682Z,12.75
2018-02-21T10:27:22.214Z,14.79
2018-02-21T10:29:49.774Z,16.02
2018-02-21T10:32:17.308Z,14.75
2018-02-21T10:34:44.981Z,13.29
2018-02-21T10:37:12.514Z,12.95
2018-02-21T10:39:40.067Z,13.87
2018-02-21T10:42:07.630Z,13.79
2018-02-21T10:44:35.170Z,11.88
2018-02-21T10:47:03.038Z,10.53
2018-02-21T10:49:30.561Z,9.45
2018-02-21T10:51:58.090Z,8.82
2018-02-21T10:54:25.643Z,7.58
2018-02-21T10:56:53.171Z,7.36
2018-02-21T10:59:20.874Z,7.44
2018-02-21T11:01:48.397Z,7.62
2018-02-21T11:04:15.921Z,8.34
2018-02-21T11:06:43.471Z,9.85
2018-02-21T11:09:11.889Z,11.57
2018-02-21T11:11:39.606Z,12.21
2018-02-21T11:14:07.131Z,11.50
2018-02-21T11:16:34.657Z,13.15
2018-02-21T11:19:02.222Z,14.77
2018-02-21T11:21:29.762Z,16.45
2018-02-21T11:23:57.802Z,15.41
2018-02-21T11:26:25.318Z,15.62
2018-02-21T11:28:52.899Z,14.94
2018-02-21T11:31:20.726Z,15.56
2018-02-21T11:33:48.246Z,17.21
2018-02-21T11:36:15.812Z,16.32
2018-02-21T11:38:43.364Z,13.18
2018-02-21T11:41:10.889Z,14.11
2018-02-21T11:43:38.555Z,13.82
2018-02-21T11:46:06.077Z,15.36
2018-02-21T11:48:34.010Z,14.88
2018-02-21T11:51:01.534Z,16.02
2018-02-21T11:53:29.066Z,16.49
2018-02-21T11:55:56.682Z,15.63
2018-02-21T11:58:24.270Z,15.53
2018-02-21T12:00:52.040Z,15.15
2018-02-21T12:03:19.567Z,13.83
2018-02-21T12:05:47.108Z,13.11
2018-02-21T12:08:14.680Z,12.76
2018-02-21T12:10:42.198Z,13.66
2018-02-21T12:13:09.769Z,14.89
2018-02-21T12:15:37.362Z,13.91
2018-02-21T12:18:04.881Z,15.11
2018-02-21T12:20:32.460Z,13.80
2018-02-21T12:23:00.078Z,13.53
2018-02-21T12:25:28.546Z,12.59
2018-02-21T12:27:56.174Z,13.84
2018-02-21T12:30:24.586Z,17.04
2018-02-21T12:32:52.518Z,18.13
2018-02-21T12:35:21.013Z,18.80
2018-02-21T12:37:48.595Z,19.34
2018-02-21T12:40:21.599Z,18.05
2018-02-21T12:42:49.438Z,15.13
2018-02-21T12:45:16.973Z,12.92
2018-02-21T12:47:44.692Z,11.90
2018-02-21T12:50:12.279Z,9.80
2018-02-21T12:52:40.811Z,9.29
2018-02-21T12:55:08.396Z,9.01
2018-02-21T12:57:36.032Z,9.61
2018-02-21T13:00:03.797Z,8.37
2018-02-21T13:02:31.354Z,8.55
2018-02-21T13:04:58.881Z,8.14
2018-02-21T13:07:26.631Z,8.37
2018-02-21T13:09:54.546Z,7.54
2018-02-21T13:12:22.314Z,8.21
2018-02-21T13:14:50.844Z,8.20
2018-02-21T13:17:22.557Z,8.53
2018-02-21T13:19:50.619Z,8.59
2018-02-21T13:22:19.507Z,8.38
2018-02-21T13:24:47.480Z,8.45
2018-02-21T13:27:15.956Z,8.44
2018-02-21T13:29:43.542Z,8.46
2018-02-21T13:32:11.386Z,8.38
2018-02-21T13:34:39.150Z,8.55
2018-02-21T13:37:08.433Z,8.84
2018-02-21T13:39:36.498Z,8.52
2018-02-21T13:42:04.387Z,8.65
2018-02-21T13:44:32.255Z,8.29
2018-02-21T13:47:00.021Z,8.53
2018-02-21T13:49:27.781Z,8.56
2018-02-21T13:51:55.652Z,7.88
2018-02-21T13:54:23.206Z,7.69
2018-02-21T13:56:51.073Z,8.02
2018-02-21T13:59:19.044Z,7.84
2018-02-21T14:01:46.798Z,7.33
2018-02-21T14:04:14.738Z,7.32
2018-02-21T14:06:42.785Z,7.59
2018-02-21T14:09:11.330Z,7.08
2018-02-21T14:11:39.115Z,7.01
2018-02-21T14:14:06.855Z,7.14
2018-02-21T14:16:34.626Z,6.88
2018-02-21T14:19:02.183Z,7.33
2018-02-21T14:21:29.725Z,7.22
2018-02-21T14:23:57.273Z,6.97
2018-02-21T14:26:24.953Z,7.14
2018-02-21T14:28:53.406Z,7.42
2018-02-21T14:31:20.937Z,7.39
2018-02-21T14:33:48.450Z,7.66
2018-02-21T14:36:16.096Z,7.16
2018-02-21T14:38:43.635Z,7.29
2018-02-21T14:41:11.486Z,7.34
2018-02-21T14:43:39.180Z,7.42
2018-02-21T14:46:06.711Z,7.10
2018-02-21T14:48:34.258Z,7.27
2018-02-21T14:51:01.883Z,7.40
2018-02-21T14:53:29.612Z,6.76
2018-02-21T14:55:57.411Z,7.24
2018-02-21T14:58:25.074Z,7.02
2018-02-21T15:00:52.671Z,6.85
2018-02-21T15:03:21.216Z,6.82
2018-02-21T15:05:48.858Z,6.55
2018-02-21T15:08:16.396Z,6.50
2018-02-21T15:10:43.930Z,6.71
2018-02-21T15:13:11.486Z,6.59
2018-02-21T15:15:39.083Z,6.39
2018-02-21T15:18:06.682Z,6.37
2018-02-21T15:20:34.342Z,6.73
2018-02-21T15:23:02.031Z,6.41
2018-02-21T15:25:29.912Z,6.45
2018-02-21T15:27:57.753Z,6.48
2018-02-21T15:30:25.510Z,6.41
2018-02-21T15:32:53.969Z,6.29
2018-02-21T15:35:21.545Z,6.31
2018-02-21T15:37:49.376Z,5.85
2018-02-21T15:40:17.062Z,5.64
2018-02-21T15:42:45.338Z,5.75
2018-02-21T15:45:12.999Z,5.78
2018-02-21T15:47:40.662Z,5.35
2018-02-21T15:50:08.224Z,5.58
2018-02-21T15:52:35.870Z,5.17
2018-02-21T15:55:03.615Z,5.41
2018-02-21T15:57:31.145Z,5.30
2018-02-21T15:59:58.719Z,5.46
2018-02-21T16:02:26.530Z,5.35
2018-02-21T16:04:54.117Z,5.37
2018-02-21T16:07:21.837Z,5.20
2018-02-21T16:09:49.394Z,5.04
2018-02-21T16:12:17.278Z,5.10
2018-02-21T16:14:45.044Z,5.05
2018-02-21T16:17:12.911Z,5.12
2018-02-21T16:19:40.677Z,5.04
2018-02-21T16:22:08.545Z,4.93
2018-02-21T16:24:37.122Z,4.69
2018-02-21T16:27:05.098Z,4.84
2018-02-21T16:29:32.957Z,4.79
2018-02-21T16:32:00.824Z,4.72
2018-02-21T16:34:28.852Z,4.81
2018-02-21T16:36:57.480Z,4.57
2018-02-21T16:39:25.346Z,4.67
2018-02-21T16:41:53.212Z,4.56
2018-02-21T16:44:21.079Z,4.39
2018-02-21T16:46:49.011Z,4.36
2018-02-21T16:49:16.707Z,4.22
2018-02-21T16:51:44.576Z,3.93
2018-02-21T16:54:17.248Z,4.13
2018-02-21T16:56:44.982Z,4.14
2018-02-21T16:59:12.657Z,3.91
2018-02-21T17:01:40.893Z,4.09
2018-02-21T17:04:08.499Z,3.93
2018-02-21T17:06:36.027Z,3.71
2018-02-21T17:09:03.823Z,3.97
2018-02-21T17:11:31.439Z,3.81
2018-02-21T17:13:59.143Z,3.91
2018-02-21T17:16:27.822Z,3.94
2018-02-21T17:18:55.486Z,3.78
2018-02-21T17:21:23.039Z,3.62
2018-02-21T17:23:50.604Z,3.77
2018-02-21T17:26:18.398Z,3.57
2018-02-21T17:28:46.117Z,3.44
2018-02-21T17:31:13.763Z,3.53
2018-02-21T17:33:41.479Z,3.50
2018-02-21T17:36:09.346Z,3.65
2018-02-21T17:38:37.597Z,3.74
2018-02-21T17:41:10.750Z,3.63
2018-02-21T17:43:38.478Z,3.69
2018-02-21T17:46:06.547Z,3.70
2018-02-21T17:48:34.208Z,3.65
2018-02-21T17:51:02.999Z,3.57
2018-02-21T17:53:30.865Z,3.58
2018-02-21T17:55:58.735Z,3.51
2018-02-21T17:58:26.806Z,3.45
2018-02-21T18:00:54.568Z,3.38
2018-02-21T18:03:22.438Z,3.32
2018-02-21T18:05:50.400Z,3.23
2018-02-21T18:08:18.267Z,3.15
2018-02-21T18:10:46.297Z,3.15
2018-02-21T18:13:14.307Z,3.15
2018-02-21T18:15:42.071Z,3.15
2018-02-21T18:18:09.873Z,3.10
2018-02-21T18:20:37.706Z,3.15
2018-02-21T18:23:05.721Z,3.13
2018-02-21T18:25:33.639Z,2.99
2018-02-21T18:28:01.609Z,3.05
2018-02-21T18:30:29.784Z,3.02
2018-02-21T18:32:57.774Z,3.03
2018-02-21T18:35:25.889Z,3.12
2018-02-21T18:37:53.791Z,3.13
2018-02-21T18:40:21.577Z,3.17
2018-02-21T18:42:49.628Z,3.18
2018-02-21T18:45:17.430Z,3.20
2018-02-21T18:47:45.771Z,3.05
2018-02-21T18:50:13.663Z,3.10
2018-02-21T18:52:41.708Z,3.00
2018-02-21T18:55:09.477Z,3.05
2018-02-21T18:57:37.341Z,3.06
2018-02-21T19:00:05.410Z,3.02
2018-02-21T19:02:33.380Z,2.94
2018-02-21T19:05:01.237Z,2.91
2018-02-21T19:07:29.419Z,2.86
2018-02-21T19:09:58.094Z,2.91
2018-02-21T19:12:26.075Z,2.79
2018-02-21T19:14:53.935Z,2.73
2018-02-21T19:17:21.895Z,2.81
2018-02-21T19:19:50.699Z,2.54
2018-02-21T19:22:18.668Z,2.77
2018-02-21T19:24:46.637Z,2.73
2018-02-21T19:27:14.502Z,2.73
2018-02-21T19:29:42.368Z,2.70
2018-02-21T19:32:11.144Z,2.56
2018-02-21T19:34:39.509Z,2.63
2018-02-21T19:37:07.763Z,2.54
2018-02-21T19:39:35.678Z,2.58
2018-02-21T19:42:03.856Z,2.54
2018-02-21T19:44:33.955Z,2.55
2018-02-21T19:47:01.959Z,2.43
2018-02-21T19:49:30.113Z,2.40
2018-02-21T19:51:58.154Z,2.52
2018-02-21T19:54:26.017Z,2.38
2018-02-21T19:56:54.839Z,2.36
2018-02-21T19:59:23.198Z,2.34
2018-02-21T20:01:51.392Z,2.24
2018-02-21T20:04:19.735Z,2.28
2018-02-21T20:06:47.744Z,2.20
2018-02-21T20:09:15.705Z,2.13
2018-02-21T20:11:44.358Z,2.12
2018-02-21T20:14:12.975Z,2.08
2018-02-21T20:16:42.847Z,2.02
2018-02-21T20:19:10.758Z,1.98
2018-02-21T20:21:39.545Z,1.99
2018-02-21T20:24:07.722Z,1.50
2018-02-21T20:26:36.096Z,1.78
2018-02-21T20:29:05.090Z,2.01
2018-02-21T20:31:32.956Z,1.84
2018-02-21T20:34:01.563Z,1.99
2018-02-21T20:36:29.508Z,2.17
2018-02-21T20:38:58.161Z,2.15
2018-02-21T20:41:26.067Z,2.20
2018-02-21T20:43:54.030Z,2.09
2018-02-21T20:46:21.998Z,2.11
2018-02-21T20:48:50.781Z,2.06
2018-02-21T20:51:19.488Z,2.03
2018-02-21T20:53:47.854Z,1.86
2018-02-21T20:56:17.151Z,2.00
2018-02-21T20:58:45.119Z,1.98
2018-02-21T21:01:13.498Z,1.97
2018-02-21T21:03:41.528Z,1.82
2018-02-21T21:06:09.846Z,1.66
2018-02-21T21:08:37.814Z,1.66
2018-02-21T21:11:05.886Z,1.75
2018-02-21T21:13:39.400Z,1.80
2018-02-21T21:16:08.098Z,1.77
2018-02-21T21:18:35.939Z,1.72
2018-02-21T21:21:04.214Z,1.72
2018-02-21T21:23:32.287Z,1.69
2018-02-21T21:26:00.153Z,1.50
2018-02-21T21:28:28.325Z,1.33
2018-02-21T21:30:56.193Z,1.55
2018-02-21T21:33:24.161Z,1.57
2018-02-21T21:35:52.129Z,1.50
2018-02-21T21:38:19.959Z,1.42
2018-02-21T21:40:48.477Z,1.49
2018-02-21T21:43:16.652Z,1.29
2018-02-21T21:45:44.827Z,1.41
2018-02-21T21:48:12.776Z,1.38
2018-02-21T21:50:40.660Z,1.35
2018-02-21T21:53:08.627Z,1.32
2018-02-21T21:55:37.417Z,1.36
2018-02-21T21:58:05.282Z,1.37
2018-02-21T22:00:33.251Z,1.40
2018-02-21T22:03:02.148Z,1.32
2018-02-21T22:05:31.236Z,1.19
2018-02-21T22:07:59.214Z,1.19
2018-02-21T22:10:27.277Z,1.26
2018-02-21T22:12:56.168Z,1.18
2018-02-21T22:15:24.034Z,1.18
2018-02-21T22:17:52.174Z,0.91
2018-02-21T22:20:20.278Z,1.08
2018-02-21T22:22:48.456Z,1.09
2018-02-21T22:25:16.886Z,0.98
2018-02-21T22:27:44.965Z,1.10
2018-02-21T22:30:13.156Z,1.23
2018-02-21T22:32:40.807Z,1.05
2018-02-21T22:35:08.706Z,0.98
2018-02-21T22:37:36.679Z,0.92
2018-02-21T22:40:04.658Z,0.81
2018-02-21T22:42:32.614Z,0.92
2018-02-21T22:45:00.576Z,0.98
2018-02-21T22:47:28.345Z,0.81
2018-02-21T22:49:56.094Z,0.93
2018-02-21T22:52:23.671Z,0.88
2018-02-21T22:54:51.512Z,0.65
2018-02-21T22:57:19.076Z,0.78
2018-02-21T22:59:46.704Z,0.74
2018-02-21T23:02:14.320Z,0.78
2018-02-21T23:04:41.909Z,0.91
2018-02-21T23:07:09.577Z,0.96
2018-02-21T23:09:37.178Z,0.61
2018-02-21T23:12:04.909Z,0.85
2018-02-21T23:14:33.330Z,0.76
2018-02-21T23:17:00.850Z,0.92
2018-02-21T23:19:28.701Z,0.84
2018-02-21T23:21:56.426Z,0.77
2018-02-21T23:24:24.909Z,0.75
2018-02-21T23:26:52.484Z,0.84
2018-02-21T23:29:20.033Z,0.79
2018-02-21T23:31:47.786Z,0.46
2018-02-21T23:34:15.306Z,0.53
2018-02-21T23:36:42.843Z,0.53
2018-02-21T23:39:10.402Z,0.63
2018-02-21T23:41:37.947Z,0.55
2018-02-21T23:44:05.669Z,0.43
2018-02-21T23:46:33.182Z,0.42
2018-02-21T23:49:00.716Z,0.52
2018-02-21T23:51:28.278Z,0.36
2018-02-21T23:53:55.797Z,0.49
2018-02-21T23:56:23.546Z,0.29
2018-02-21T23:58:51.073Z,0.34
